createdAt,value
2018-11-22T00:00:56.732Z,1004.21
2018-11-22T00:01:56.726Z,1004.22
2018-11-22T00:02:56.708Z,1004.18
2018-11-22T00:03:56.679Z,1004.20
2018-11-22T00:04:56.665Z,1004.22
2018-11-22T00:05:56.661Z,1004.23
2018-11-22T00:06:56.649Z,1004.20
2018-11-22T00:07:56.660Z,1004.18
2018-11-22T00:08:56.630Z,1004.20
2018-11-22T00:09:56.613Z,1004.19
2018-11-22T00:10:56.604Z,1004.21
2018-11-22T00:11:56.604Z,1004.20
2018-11-22T00:12:56.603Z,1004.19
2018-11-22T00:13:56.574Z,1004.17
2018-11-22T00:14:56.563Z,1004.18
2018-11-22T00:15:56.569Z,1004.17
2018-11-22T00:16:56.539Z,1004.22
2018-11-22T00:17:56.535Z,1004.21
2018-11-22T00:18:56.554Z,1004.21
2018-11-22T00:19:56.512Z,1004.16
2018-11-22T00:20:56.524Z,1004.21
2018-11-22T00:21:56.487Z,1004.21
2018-11-22T00:22:56.651Z,1004.22
2018-11-22T00:23:56.467Z,1004.26
2018-11-22T00:24:56.474Z,1004.25
2018-11-22T00:25:56.466Z,1004.25
2018-11-22T00:26:56.439Z,1004.29
2018-11-22T00:27:56.435Z,1004.25
2018-11-22T00:28:56.426Z,1004.25
2018-11-22T00:29:56.434Z,1004.21
2018-11-22T00:30:56.398Z,1004.18
2018-11-22T00:31:56.389Z,1004.22
2018-11-22T00:32:56.384Z,1004.23
2018-11-22T00:33:56.358Z,1004.21
2018-11-22T00:34:56.351Z,1004.21
2018-11-22T00:35:56.365Z,1004.24
2018-11-22T00:36:56.331Z,1004.26
2018-11-22T00:37:56.324Z,1004.26
2018-11-22T00:38:56.317Z,1004.23
2018-11-22T00:39:56.303Z,1004.22
2018-11-22T00:40:56.291Z,1004.26
2018-11-22T00:41:56.301Z,1004.20
2018-11-22T00:42:56.269Z,1004.19
2018-11-22T00:43:56.259Z,1004.18
2018-11-22T00:44:56.249Z,1004.20
2018-11-22T00:45:56.254Z,1004.21
2018-11-22T00:46:56.268Z,1004.23
2018-11-22T00:47:56.214Z,1004.20
2018-11-22T00:48:56.203Z,1004.23
2018-11-22T00:49:56.221Z,1004.24
2018-11-22T00:50:56.185Z,1004.21
2018-11-22T00:51:56.174Z,1004.23
2018-11-22T00:52:56.166Z,1004.22
2018-11-22T00:53:56.148Z,1004.24
2018-11-22T00:54:56.145Z,1004.29
2018-11-22T00:55:56.147Z,1004.27
2018-11-22T00:56:56.133Z,1004.28
2018-11-22T00:57:56.112Z,1004.28
2018-11-22T00:58:56.101Z,1004.26
2018-11-22T00:59:56.100Z,1004.28
2018-11-22T01:00:56.075Z,1004.31
2018-11-22T01:01:56.092Z,1004.30
2018-11-22T01:02:56.057Z,1004.34
2018-11-22T01:03:56.044Z,1004.29
2018-11-22T01:04:56.038Z,1004.30
2018-11-22T01:05:56.020Z,1004.29
2018-11-22T01:06:56.013Z,1004.37
2018-11-22T01:07:56.019Z,1004.34
2018-11-22T01:08:55.990Z,1004.32
2018-11-22T01:09:55.985Z,1004.30
2018-11-22T01:10:55.972Z,1004.29
2018-11-22T01:11:55.962Z,1004.33
2018-11-22T01:12:55.954Z,1004.32
2018-11-22T01:13:55.955Z,1004.35
2018-11-22T01:14:55.927Z,1004.33
2018-11-22T01:15:55.919Z,1004.31
2018-11-22T01:16:55.938Z,1004.28
2018-11-22T01:17:55.895Z,1004.31
2018-11-22T01:18:55.887Z,1004.30
2018-11-22T01:19:55.877Z,1004.28
2018-11-22T01:20:55.880Z,1004.29
2018-11-22T01:21:55.879Z,1004.28
2018-11-22T01:22:55.848Z,1004.28
2018-11-22T01:23:55.836Z,1004.25
2018-11-22T01:24:55.829Z,1004.27
2018-11-22T01:25:55.812Z,1004.24
2018-11-22T01:26:55.863Z,1004.28
2018-11-22T01:27:55.793Z,1004.34
2018-11-22T01:28:55.783Z,1004.23
2018-11-22T01:29:55.781Z,1004.28
2018-11-22T01:30:55.764Z,1004.27
2018-11-22T01:31:55.768Z,1004.24
2018-11-22T01:32:55.764Z,1004.24
2018-11-22T01:33:55.733Z,1004.26
2018-11-22T01:34:55.723Z,1004.21
2018-11-22T01:35:55.710Z,1004.27
2018-11-22T01:36:55.706Z,1004.27
2018-11-22T01:37:55.685Z,1004.23
2018-11-22T01:38:55.715Z,1004.25
2018-11-22T01:39:55.665Z,1004.24
2018-11-22T01:40:55.653Z,1004.25
2018-11-22T01:41:55.668Z,1004.23
2018-11-22T01:42:55.641Z,1004.24
2018-11-22T01:43:55.626Z,1004.23
2018-11-22T01:44:55.619Z,1004.25
2018-11-22T01:45:55.602Z,1004.22
2018-11-22T01:46:55.611Z,1004.19
2018-11-22T01:47:55.585Z,1004.21
2018-11-22T01:48:55.580Z,1004.19
2018-11-22T01:49:55.560Z,1004.22
2018-11-22T01:50:55.568Z,1004.21
2018-11-22T01:51:55.559Z,1004.22
2018-11-22T01:52:55.528Z,1004.23
2018-11-22T01:53:55.525Z,1004.21
2018-11-22T01:54:55.513Z,1004.22
2018-11-22T01:55:55.502Z,1004.24
2018-11-22T01:56:55.509Z,1004.22
2018-11-22T01:57:55.484Z,1004.22
2018-11-22T01:58:55.466Z,1004.21
2018-11-22T01:59:55.461Z,1004.21
2018-11-22T02:00:56.603Z,1004.19
2018-11-22T02:01:55.462Z,1004.19
2018-11-22T02:02:55.481Z,1004.20
2018-11-22T02:03:55.412Z,1004.19
2018-11-22T02:04:55.410Z,1004.19
2018-11-22T02:05:55.393Z,1004.18
2018-11-22T02:06:55.379Z,1004.19
2018-11-22T02:07:55.392Z,1004.21
2018-11-22T02:08:55.361Z,1004.20
2018-11-22T02:09:55.353Z,1004.12
2018-11-22T02:10:55.346Z,1004.17
2018-11-22T02:11:55.335Z,1004.17
2018-11-22T02:12:55.338Z,1004.15
2018-11-22T02:13:55.309Z,1004.18
2018-11-22T02:14:55.321Z,1004.15
2018-11-22T02:15:55.292Z,1004.18
2018-11-22T02:16:55.279Z,1004.17
2018-11-22T02:17:55.269Z,1004.14
2018-11-22T02:18:55.261Z,1004.14
2018-11-22T02:19:55.245Z,1004.19
2018-11-22T02:20:55.261Z,1004.20
2018-11-22T02:21:55.227Z,1004.15
2018-11-22T02:22:55.220Z,1004.10
2018-11-22T02:23:55.220Z,1004.09
2018-11-22T02:24:55.199Z,1004.11
2018-11-22T02:25:55.186Z,1004.10
2018-11-22T02:26:55.194Z,1004.10
2018-11-22T02:27:55.165Z,1004.12
2018-11-22T02:28:55.182Z,1004.11
2018-11-22T02:29:55.142Z,1004.09
2018-11-22T02:30:55.134Z,1004.12
2018-11-22T02:31:55.124Z,1004.12
2018-11-22T02:32:55.128Z,1004.08
2018-11-22T02:33:55.097Z,1004.11
2018-11-22T02:34:55.085Z,1004.05
2018-11-22T02:35:55.109Z,1004.07
2018-11-22T02:36:55.068Z,1004.07
2018-11-22T02:37:55.082Z,1004.06
2018-11-22T02:38:55.043Z,1004.04
2018-11-22T02:39:55.032Z,1004.08
2018-11-22T02:40:55.030Z,1004.06
2018-11-22T02:41:55.018Z,1004.05
2018-11-22T02:42:55.020Z,1004.03
2018-11-22T02:43:55.024Z,1004.04
2018-11-22T02:44:54.985Z,1004.06
2018-11-22T02:45:54.971Z,1004.02
2018-11-22T02:46:54.958Z,1004.04
2018-11-22T02:47:54.948Z,1003.97
2018-11-22T02:48:54.939Z,1003.99
2018-11-22T02:49:54.950Z,1003.99
2018-11-22T02:50:54.942Z,1003.96
2018-11-22T02:51:54.905Z,1004.00
2018-11-22T02:52:54.918Z,1004.00
2018-11-22T02:53:54.890Z,1004.01
2018-11-22T02:54:54.907Z,1004.02
2018-11-22T02:55:54.870Z,1003.99
2018-11-22T02:56:54.861Z,1004.01
2018-11-22T02:57:54.844Z,1003.99
2018-11-22T02:58:54.832Z,1004.02
2018-11-22T02:59:54.822Z,1004.01
2018-11-22T03:00:56.486Z,1003.98
2018-11-22T03:01:54.806Z,1004.02
2018-11-22T03:02:54.797Z,1004.04
2018-11-22T03:03:54.788Z,1004.04
2018-11-22T03:04:54.774Z,1004.05
2018-11-22T03:05:54.762Z,1004.08
2018-11-22T03:06:54.770Z,1004.07
2018-11-22T03:07:54.746Z,1004.03
2018-11-22T03:08:54.733Z,1004.06
2018-11-22T03:09:54.718Z,1004.07
2018-11-22T03:10:54.724Z,1004.07
2018-11-22T03:11:54.695Z,1004.10
2018-11-22T03:12:54.687Z,1004.07
2018-11-22T03:13:54.678Z,1004.12
2018-11-22T03:14:54.670Z,1004.10
2018-11-22T03:15:54.683Z,1004.12
2018-11-22T03:16:54.648Z,1004.09
2018-11-22T03:17:54.635Z,1004.09
2018-11-22T03:18:54.621Z,1004.11
2018-11-22T03:19:54.610Z,1004.06
2018-11-22T03:20:54.610Z,1004.07
2018-11-22T03:21:54.622Z,1004.08
2018-11-22T03:22:54.960Z,1004.07
2018-11-22T03:23:54.580Z,1004.06
2018-11-22T03:24:54.563Z,1004.07
2018-11-22T03:25:54.554Z,1004.05
2018-11-22T03:26:54.547Z,1004.06
2018-11-22T03:27:54.550Z,1004.04
2018-11-22T03:28:54.520Z,1004.01
2018-11-22T03:29:54.508Z,1004.06
2018-11-22T03:30:54.498Z,1004.08
2018-11-22T03:31:54.508Z,1004.07
2018-11-22T03:32:54.476Z,1004.06
2018-11-22T03:33:54.468Z,1004.08
2018-11-22T03:34:54.460Z,1004.09
2018-11-22T03:35:54.449Z,1004.09
2018-11-22T03:36:54.454Z,1004.08
2018-11-22T03:37:54.422Z,1004.07
2018-11-22T03:38:54.432Z,1004.06
2018-11-22T03:39:54.409Z,1004.10
2018-11-22T03:40:54.396Z,1004.06
2018-11-22T03:41:54.379Z,1004.09
2018-11-22T03:42:54.371Z,1004.10
2018-11-22T03:43:54.381Z,1004.12
2018-11-22T03:44:54.348Z,1004.09
2018-11-22T03:45:54.341Z,1004.08
2018-11-22T03:46:54.339Z,1004.07
2018-11-22T03:47:54.322Z,1004.03
2018-11-22T03:48:54.317Z,1004.07
2018-11-22T03:49:54.323Z,1004.04
2018-11-22T03:50:54.284Z,1004.01
2018-11-22T03:51:54.272Z,1004.03
2018-11-22T03:52:54.266Z,1004.07
2018-11-22T03:53:54.275Z,1004.04
2018-11-22T03:54:54.253Z,1004.02
2018-11-22T03:55:54.231Z,1004.06
2018-11-22T03:56:54.224Z,1004.02
2018-11-22T03:57:54.225Z,1004.05
2018-11-22T03:58:54.226Z,1004.07
2018-11-22T03:59:54.198Z,1004.08
2018-11-22T04:00:54.216Z,1004.10
2018-11-22T04:01:54.171Z,1004.08
2018-11-22T04:02:54.161Z,1004.08
2018-11-22T04:03:54.147Z,1004.09
2018-11-22T04:04:54.140Z,1004.08
2018-11-22T04:05:54.144Z,1004.10
2018-11-22T04:06:54.166Z,1004.10
2018-11-22T04:07:54.112Z,1004.12
2018-11-22T04:08:54.120Z,1004.09
2018-11-22T04:09:54.104Z,1004.08
2018-11-22T04:10:54.078Z,1004.11
2018-11-22T04:11:54.071Z,1004.08
2018-11-22T04:12:54.059Z,1004.11
2018-11-22T04:13:54.072Z,1004.07
2018-11-22T04:14:54.042Z,1004.07
2018-11-22T04:15:54.022Z,1004.09
2018-11-22T04:16:54.013Z,1004.06
2018-11-22T04:17:54.009Z,1004.10
2018-11-22T04:18:54.001Z,1004.07
2018-11-22T04:19:54.020Z,1004.05
2018-11-22T04:20:53.976Z,1004.10
2018-11-22T04:21:53.960Z,1004.05
2018-11-22T04:22:53.947Z,1004.08
2018-11-22T04:23:53.937Z,1004.10
2018-11-22T04:24:53.928Z,1004.06
2018-11-22T04:25:53.945Z,1004.02
2018-11-22T04:26:53.911Z,1004.06
2018-11-22T04:27:53.895Z,1004.09
2018-11-22T04:28:53.886Z,1004.07
2018-11-22T04:29:53.878Z,1004.08
2018-11-22T04:30:53.894Z,1004.02
2018-11-22T04:31:53.862Z,1004.08
2018-11-22T04:32:53.845Z,1004.10
2018-11-22T04:33:53.834Z,1004.08
2018-11-22T04:34:53.820Z,1004.04
2018-11-22T04:35:53.836Z,1004.07
2018-11-22T04:36:53.803Z,1004.03
2018-11-22T04:37:53.809Z,1004.05
2018-11-22T04:38:53.819Z,1004.00
2018-11-22T04:39:53.775Z,1004.09
2018-11-22T04:40:53.762Z,1004.05
2018-11-22T04:41:53.780Z,1004.03
2018-11-22T04:42:53.739Z,1004.07
2018-11-22T04:43:53.736Z,1004.05
2018-11-22T04:44:53.720Z,1004.09
2018-11-22T04:45:53.706Z,1004.06
2018-11-22T04:46:53.694Z,1004.08
2018-11-22T04:47:53.708Z,1004.05
2018-11-22T04:48:53.676Z,1004.02
2018-11-22T04:49:53.667Z,1004.04
2018-11-22T04:50:53.658Z,1004.01
2018-11-22T04:51:53.649Z,1004.05
2018-11-22T04:52:53.636Z,1004.02
2018-11-22T04:53:53.689Z,1004.04
2018-11-22T04:54:53.613Z,1004.05
2018-11-22T04:55:53.599Z,1004.00
2018-11-22T04:56:53.592Z,1004.00
2018-11-22T04:57:57.942Z,1004.00
2018-11-22T04:58:53.599Z,1003.99
2018-11-22T04:59:53.557Z,1004.04
2018-11-22T05:00:53.553Z,1004.00
2018-11-22T05:01:53.544Z,1003.98
2018-11-22T05:02:53.545Z,1004.03
2018-11-22T05:03:53.523Z,1004.01
2018-11-22T05:04:53.534Z,1004.03
2018-11-22T05:05:53.497Z,1004.00
2018-11-22T05:06:53.487Z,1004.02
2018-11-22T05:07:53.474Z,1004.01
2018-11-22T05:08:53.465Z,1004.01
2018-11-22T05:09:53.458Z,1004.02
2018-11-22T05:10:53.470Z,1004.02
2018-11-22T05:11:53.435Z,1004.01
2018-11-22T05:12:53.435Z,1003.97
2018-11-22T05:13:53.418Z,1003.99
2018-11-22T05:14:53.405Z,1004.02
2018-11-22T05:15:53.420Z,1004.06
2018-11-22T05:16:53.385Z,1004.01
2018-11-22T05:17:53.372Z,1003.99
2018-11-22T05:18:53.358Z,1004.03
2018-11-22T05:19:53.350Z,1004.01
2018-11-22T05:20:53.339Z,1004.00
2018-11-22T05:21:53.354Z,1004.02
2018-11-22T05:22:53.323Z,1003.97
2018-11-22T05:23:53.314Z,1004.01
2018-11-22T05:24:53.299Z,1004.01
2018-11-22T05:25:53.286Z,1003.99
2018-11-22T05:26:53.273Z,1004.04
2018-11-22T05:27:53.280Z,1004.05
2018-11-22T05:28:53.256Z,1004.08
2018-11-22T05:29:53.248Z,1004.10
2018-11-22T05:30:53.244Z,1004.05
2018-11-22T05:31:53.224Z,1004.03
2018-11-22T05:32:53.232Z,1004.02
2018-11-22T05:33:53.206Z,1003.99
2018-11-22T05:34:53.213Z,1003.95
2018-11-22T05:35:53.189Z,1003.94
2018-11-22T05:36:53.176Z,1003.94
2018-11-22T05:37:53.162Z,1004.01
2018-11-22T05:38:53.151Z,1004.04
2018-11-22T05:39:53.224Z,1004.00
2018-11-22T05:40:53.130Z,1004.03
2018-11-22T05:41:53.139Z,1004.03
2018-11-22T05:42:54.280Z,1004.01
2018-11-22T05:43:53.102Z,1003.98
2018-11-22T05:44:53.110Z,1004.04
2018-11-22T05:45:53.076Z,1004.02
2018-11-22T05:46:53.068Z,1004.04
2018-11-22T05:47:53.085Z,1004.06
2018-11-22T05:48:53.047Z,1004.06
2018-11-22T05:49:53.035Z,1004.08
2018-11-22T05:50:53.021Z,1004.06
2018-11-22T05:51:53.018Z,1004.03
2018-11-22T05:52:53.008Z,1004.02
2018-11-22T05:53:53.020Z,1004.00
2018-11-22T05:54:53.002Z,1004.02
2018-11-22T05:55:52.974Z,1004.01
2018-11-22T05:56:52.969Z,1004.05
2018-11-22T05:57:52.951Z,1004.05
2018-11-22T05:58:52.936Z,1004.06
2018-11-22T05:59:52.947Z,1004.03
2018-11-22T06:00:52.918Z,1004.03
2018-11-22T06:01:52.909Z,1004.03
2018-11-22T06:02:52.903Z,1004.00
2018-11-22T06:03:52.883Z,1004.00
2018-11-22T06:04:52.896Z,1004.00
2018-11-22T06:05:52.895Z,1004.00
2018-11-22T06:06:52.861Z,1003.95
2018-11-22T06:07:52.866Z,1003.93
2018-11-22T06:08:52.836Z,1003.93
2018-11-22T06:09:52.831Z,1003.97
2018-11-22T06:10:52.849Z,1003.94
2018-11-22T06:11:52.809Z,1003.96
2018-11-22T06:12:52.819Z,1003.95
2018-11-22T06:13:52.788Z,1003.94
2018-11-22T06:14:53.443Z,1003.96
2018-11-22T06:15:52.966Z,1003.92
2018-11-22T06:16:52.753Z,1003.96
2018-11-22T06:17:52.741Z,1003.98
2018-11-22T06:18:52.829Z,1003.95
2018-11-22T06:19:52.720Z,1003.92
2018-11-22T06:20:52.711Z,1003.93
2018-11-22T06:21:52.727Z,1003.98
2018-11-22T06:22:54.138Z,1003.96
2018-11-22T06:23:52.687Z,1004.00
2018-11-22T06:24:52.731Z,1003.97
2018-11-22T06:25:52.717Z,1003.97
2018-11-22T06:26:52.721Z,1004.00
2018-11-22T06:27:52.660Z,1004.00
2018-11-22T06:28:54.079Z,1003.98
2018-11-22T06:29:52.620Z,1003.99
2018-11-22T06:30:52.602Z,1003.99
2018-11-22T06:31:52.612Z,1004.02
2018-11-22T06:32:52.578Z,1003.95
2018-11-22T06:33:52.592Z,1003.97
2018-11-22T06:34:52.561Z,1004.01
2018-11-22T06:35:52.548Z,1004.01
2018-11-22T06:36:52.535Z,1004.00
2018-11-22T06:37:52.531Z,1004.02
2018-11-22T06:38:52.536Z,1004.02
2018-11-22T06:39:52.525Z,1004.00
2018-11-22T06:40:52.500Z,1004.05
2018-11-22T06:41:52.495Z,1004.04
2018-11-22T06:42:52.499Z,1004.05
2018-11-22T06:43:52.467Z,1004.05
2018-11-22T06:44:52.453Z,1004.06
2018-11-22T06:45:52.448Z,1004.04
2018-11-22T06:46:52.441Z,1004.08
2018-11-22T06:47:52.429Z,1004.04
2018-11-22T06:48:52.435Z,1004.07
2018-11-22T06:49:52.400Z,1004.10
2018-11-22T06:50:52.408Z,1004.08
2018-11-22T06:51:52.382Z,1004.12
2018-11-22T06:52:52.374Z,1004.12
2018-11-22T06:53:52.361Z,1004.15
2018-11-22T06:54:52.371Z,1004.13
2018-11-22T06:55:52.364Z,1004.16
2018-11-22T06:56:52.324Z,1004.15
2018-11-22T06:57:52.321Z,1004.20
2018-11-22T06:58:52.314Z,1004.15
2018-11-22T06:59:52.297Z,1004.13
2018-11-22T07:00:52.303Z,1004.21
2018-11-22T07:01:52.291Z,1004.18
2018-11-22T07:02:52.263Z,1004.18
2018-11-22T07:03:52.252Z,1004.20
2018-11-22T07:04:52.242Z,1004.19
2018-11-22T07:05:52.265Z,1004.17
2018-11-22T07:06:52.252Z,1004.11
2018-11-22T07:07:52.211Z,1004.11
2018-11-22T07:08:52.199Z,1004.15
2018-11-22T07:09:52.200Z,1004.17
2018-11-22T07:10:52.182Z,1004.04
2018-11-22T07:11:52.171Z,1004.10
2018-11-22T07:12:52.183Z,1004.07
2018-11-22T07:13:52.149Z,1004.11
2018-11-22T07:14:52.181Z,1004.06
2018-11-22T07:15:52.147Z,1004.12
2018-11-22T07:16:52.123Z,1004.08
2018-11-22T07:17:52.113Z,1004.07
2018-11-22T07:18:52.097Z,1004.08
2018-11-22T07:19:52.088Z,1004.08
2018-11-22T07:20:52.106Z,1004.04
2018-11-22T07:21:52.062Z,1004.08
2018-11-22T07:22:52.055Z,1004.07
2018-11-22T07:23:52.047Z,1004.05
2018-11-22T07:24:52.061Z,1004.08
2018-11-22T07:25:52.020Z,1004.08
2018-11-22T07:26:52.040Z,1004.09
2018-11-22T07:27:52.001Z,1004.06
2018-11-22T07:28:51.994Z,1004.08
2018-11-22T07:29:51.985Z,1004.11
2018-11-22T07:30:52.040Z,1004.06
2018-11-22T07:31:52.171Z,1004.09
2018-11-22T07:32:51.953Z,1004.08
2018-11-22T07:33:51.941Z,1004.11
2018-11-22T07:34:51.928Z,1004.12
2018-11-22T07:35:51.965Z,1004.12
2018-11-22T07:36:51.944Z,1004.09
2018-11-22T07:37:51.916Z,1004.12
2018-11-22T07:38:51.890Z,1004.12
2018-11-22T07:39:51.912Z,1004.13
2018-11-22T07:40:51.879Z,1004.09
2018-11-22T07:41:51.861Z,1004.11
2018-11-22T07:42:51.850Z,1004.13
2018-11-22T07:43:51.836Z,1004.13
2018-11-22T07:44:51.827Z,1004.13
2018-11-22T07:45:51.834Z,1004.15
2018-11-22T07:46:51.805Z,1004.12
2018-11-22T07:47:51.800Z,1004.12
2018-11-22T07:48:51.780Z,1004.09
2018-11-22T07:49:51.774Z,1004.12
2018-11-22T07:50:51.762Z,1004.13
2018-11-22T07:51:51.772Z,1004.12
2018-11-22T07:52:52.366Z,1004.14
2018-11-22T07:53:51.725Z,1004.11
2018-11-22T07:54:51.714Z,1004.14
2018-11-22T07:55:51.735Z,1004.12
2018-11-22T07:56:51.712Z,1004.12
2018-11-22T07:57:51.691Z,1004.15
2018-11-22T07:58:51.672Z,1004.12
2018-11-22T07:59:51.662Z,1004.18
2018-11-22T08:00:51.650Z,1004.16
2018-11-22T08:01:51.664Z,1004.11
2018-11-22T08:02:51.638Z,1004.14
2018-11-22T08:03:51.622Z,1004.13
2018-11-22T08:04:51.621Z,1004.11
2018-11-22T08:05:51.594Z,1004.10
2018-11-22T08:06:51.609Z,1004.13
2018-11-22T08:07:51.575Z,1004.08
2018-11-22T08:08:51.562Z,1004.06
2018-11-22T08:09:51.558Z,1004.03
2018-11-22T08:10:51.546Z,1004.05
2018-11-22T08:11:51.532Z,1004.07
2018-11-22T08:12:51.646Z,1004.07
2018-11-22T08:13:51.516Z,1004.08
2018-11-22T08:14:51.504Z,1004.09
2018-11-22T08:15:51.492Z,1004.11
2018-11-22T08:16:51.502Z,1004.11
2018-11-22T08:17:51.466Z,1004.11
2018-11-22T08:18:51.476Z,1004.07
2018-11-22T08:19:51.447Z,1004.10
2018-11-22T08:20:51.443Z,1004.13
2018-11-22T08:21:51.458Z,1004.11
2018-11-22T08:22:51.424Z,1004.15
2018-11-22T08:23:51.411Z,1004.15
2018-11-22T08:24:51.415Z,1004.12
2018-11-22T08:25:51.380Z,1004.08
2018-11-22T08:26:51.566Z,1004.09
2018-11-22T08:27:51.363Z,1004.12
2018-11-22T08:28:51.356Z,1004.11
2018-11-22T08:29:51.338Z,1004.06
2018-11-22T08:30:51.330Z,1004.05
2018-11-22T08:31:51.395Z,1004.05
2018-11-22T08:32:52.697Z,1004.13
2018-11-22T08:33:51.301Z,1004.10
2018-11-22T08:34:51.287Z,1004.14
2018-11-22T08:35:51.301Z,1004.13
2018-11-22T08:36:51.272Z,1004.13
2018-11-22T08:37:51.250Z,1004.13
2018-11-22T08:38:51.249Z,1004.18
2018-11-22T08:39:51.237Z,1004.13
2018-11-22T08:40:51.222Z,1004.18
2018-11-22T08:41:51.230Z,1004.16
2018-11-22T08:42:55.139Z,1004.20
2018-11-22T08:43:51.190Z,1004.16
2018-11-22T08:44:51.175Z,1004.22
2018-11-22T08:45:51.174Z,1004.20
2018-11-22T08:46:51.176Z,1004.18
2018-11-22T08:47:51.149Z,1004.25
2018-11-22T08:48:51.138Z,1004.20
2018-11-22T08:49:51.120Z,1004.23
2018-11-22T08:50:51.113Z,1004.23
2018-11-22T08:51:51.119Z,1004.24
2018-11-22T08:52:52.774Z,1004.24
2018-11-22T08:53:51.104Z,1004.26
2018-11-22T08:54:51.070Z,1004.29
2018-11-22T08:55:51.060Z,1004.28
2018-11-22T08:56:51.068Z,1004.26
2018-11-22T08:57:51.036Z,1004.27
2018-11-22T08:58:51.044Z,1004.27
2018-11-22T08:59:51.016Z,1004.24
2018-11-22T09:00:51.015Z,1004.29
2018-11-22T09:01:50.990Z,1004.27
2018-11-22T09:02:51.005Z,1004.26
2018-11-22T09:03:50.970Z,1004.26
2018-11-22T09:04:50.957Z,1004.21
2018-11-22T09:05:50.952Z,1004.26
2018-11-22T09:06:50.946Z,1004.21
2018-11-22T09:07:50.975Z,1004.21
2018-11-22T09:08:51.018Z,1004.24
2018-11-22T09:09:51.287Z,1004.22
2018-11-22T09:10:50.941Z,1004.24
2018-11-22T09:11:50.923Z,1004.25
2018-11-22T09:12:50.887Z,1004.29
2018-11-22T09:13:50.894Z,1004.28
2018-11-22T09:14:50.855Z,1004.31
2018-11-22T09:15:50.840Z,1004.28
2018-11-22T09:16:50.846Z,1004.24
2018-11-22T09:17:50.825Z,1004.29
2018-11-22T09:18:52.204Z,1004.31
2018-11-22T09:19:50.801Z,1004.34
2018-11-22T09:20:50.804Z,1004.33
2018-11-22T09:21:50.829Z,1004.37
2018-11-22T09:22:52.102Z,1004.34
2018-11-22T09:23:50.830Z,1004.36
2018-11-22T09:24:50.795Z,1004.35
2018-11-22T09:25:50.777Z,1004.40
2018-11-22T09:26:50.790Z,1004.35
2018-11-22T09:27:50.723Z,1004.37
2018-11-22T09:28:50.708Z,1004.41
2018-11-22T09:29:50.689Z,1004.40
2018-11-22T09:30:50.698Z,1004.39
2018-11-22T09:31:50.673Z,1004.41
2018-11-22T09:32:50.680Z,1004.37
2018-11-22T09:33:50.648Z,1004.41
2018-11-22T09:34:50.636Z,1004.38
2018-11-22T09:35:50.644Z,1004.43
2018-11-22T09:36:50.614Z,1004.39
2018-11-22T09:37:50.626Z,1004.39
2018-11-22T09:38:50.600Z,1004.40
2018-11-22T09:39:50.587Z,1004.35
2018-11-22T09:40:50.584Z,1004.35
2018-11-22T09:41:50.562Z,1004.34
2018-11-22T09:42:50.668Z,1004.38
2018-11-22T09:43:50.618Z,1004.37
2018-11-22T09:44:50.534Z,1004.40
2018-11-22T09:45:50.524Z,1004.34
2018-11-22T09:46:50.510Z,1004.38
2018-11-22T09:47:50.514Z,1004.39
2018-11-22T09:48:50.661Z,1004.37
2018-11-22T09:49:50.499Z,1004.39
2018-11-22T09:50:50.473Z,1004.40
2018-11-22T09:51:50.463Z,1004.38
2018-11-22T09:52:50.471Z,1004.43
2018-11-22T09:53:50.450Z,1004.45
2018-11-22T09:54:50.427Z,1004.41
2018-11-22T09:55:50.412Z,1004.42
2018-11-22T09:56:50.407Z,1004.46
2018-11-22T09:57:50.394Z,1004.46
2018-11-22T09:58:50.517Z,1004.42
2018-11-22T09:59:50.369Z,1004.40
2018-11-22T10:00:50.362Z,1004.39
2018-11-22T10:01:50.344Z,1004.36
2018-11-22T10:02:50.386Z,1004.31
2018-11-22T10:03:50.372Z,1004.31
2018-11-22T10:04:52.181Z,1004.36
2018-11-22T10:05:50.377Z,1004.32
2018-11-22T10:06:50.293Z,1004.28
2018-11-22T10:07:51.430Z,1004.27
2018-11-22T10:08:50.273Z,1004.26
2018-11-22T10:09:50.275Z,1004.26
2018-11-22T10:10:50.273Z,1004.27
2018-11-22T10:11:51.577Z,1004.27
2018-11-22T10:12:50.270Z,1004.29
2018-11-22T10:13:50.216Z,1004.28
2018-11-22T10:14:50.208Z,1004.31
2018-11-22T10:15:50.670Z,1004.31
2018-11-22T10:16:50.734Z,1004.29
2018-11-22T10:17:50.223Z,1004.30
2018-11-22T10:18:50.171Z,1004.28
2018-11-22T10:19:50.176Z,1004.23
2018-11-22T10:20:50.141Z,1004.30
2018-11-22T10:21:50.161Z,1004.30
2018-11-22T10:22:50.134Z,1004.19
2018-11-22T10:23:50.160Z,1004.20
2018-11-22T10:24:50.133Z,1004.25
2018-11-22T10:25:50.129Z,1004.26
2018-11-22T10:26:50.077Z,1004.27
2018-11-22T10:27:50.090Z,1004.22
2018-11-22T10:28:50.077Z,1004.14
2018-11-22T10:29:52.020Z,1004.23
2018-11-22T10:30:50.039Z,1004.21
2018-11-22T10:31:50.094Z,1004.19
2018-11-22T10:32:50.014Z,1004.20
2018-11-22T10:33:50.031Z,1004.18
2018-11-22T10:34:49.989Z,1004.19
2018-11-22T10:35:49.986Z,1004.15
2018-11-22T10:36:49.976Z,1004.16
2018-11-22T10:37:50.146Z,1004.17
2018-11-22T10:38:49.950Z,1004.18
2018-11-22T10:39:49.952Z,1004.24
2018-11-22T10:40:49.932Z,1004.20
2018-11-22T10:41:49.921Z,1004.24
2018-11-22T10:42:49.935Z,1004.20
2018-11-22T10:43:49.900Z,1004.19
2018-11-22T10:44:49.899Z,1004.21
2018-11-22T10:45:49.874Z,1004.18
2018-11-22T10:46:49.870Z,1004.23
2018-11-22T10:47:49.887Z,1004.22
2018-11-22T10:48:49.875Z,1004.21
2018-11-22T10:49:51.432Z,1004.22
2018-11-22T10:50:49.852Z,1004.23
2018-11-22T10:51:49.808Z,1004.23
2018-11-22T10:52:49.958Z,1004.22
2018-11-22T10:53:49.792Z,1004.23
2018-11-22T10:54:49.820Z,1004.27
2018-11-22T10:55:49.772Z,1004.26
2018-11-22T10:56:49.758Z,1004.29
2018-11-22T10:57:53.825Z,1004.32
2018-11-22T10:58:49.768Z,1004.27
2018-11-22T10:59:49.727Z,1004.28
2018-11-22T11:00:49.716Z,1004.29
2018-11-22T11:01:49.704Z,1004.29
2018-11-22T11:02:49.699Z,1004.30
2018-11-22T11:03:49.686Z,1004.30
2018-11-22T11:04:49.702Z,1004.33
2018-11-22T11:05:49.677Z,1004.28
2018-11-22T11:06:49.648Z,1004.28
2018-11-22T11:07:49.643Z,1004.22
2018-11-22T11:08:49.658Z,1004.25
2018-11-22T11:09:49.623Z,1004.23
2018-11-22T11:10:49.628Z,1004.23
2018-11-22T11:11:49.598Z,1004.24
2018-11-22T11:12:49.945Z,1004.24
2018-11-22T11:13:49.592Z,1004.17
2018-11-22T11:14:49.604Z,1004.17
2018-11-22T11:15:49.648Z,1004.15
2018-11-22T11:16:49.671Z,1004.19
2018-11-22T11:17:50.145Z,1004.20
2018-11-22T11:18:49.560Z,1004.18
2018-11-22T11:19:49.507Z,1004.13
2018-11-22T11:20:49.500Z,1004.15
2018-11-22T11:21:49.497Z,1004.20
2018-11-22T11:22:49.500Z,1004.18
2018-11-22T11:23:49.482Z,1004.18
2018-11-22T11:24:49.457Z,1004.19
2018-11-22T11:25:49.446Z,1004.19
2018-11-22T11:26:49.459Z,1004.21
2018-11-22T11:27:49.444Z,1004.21
2018-11-22T11:28:49.465Z,1004.20
2018-11-22T11:29:49.402Z,1004.20
2018-11-22T11:30:49.390Z,1004.19
2018-11-22T11:31:49.424Z,1004.18
2018-11-22T11:32:49.383Z,1004.21
2018-11-22T11:33:49.363Z,1004.20
2018-11-22T11:34:49.380Z,1004.19
2018-11-22T11:35:49.371Z,1004.15
2018-11-22T11:36:49.345Z,1004.15
2018-11-22T11:37:49.316Z,1004.19
2018-11-22T11:38:49.316Z,1004.16
2018-11-22T11:39:49.303Z,1004.14
2018-11-22T11:40:49.304Z,1004.15
2018-11-22T11:41:49.276Z,1004.18
2018-11-22T11:42:49.275Z,1004.12
2018-11-22T11:43:49.249Z,1004.16
2018-11-22T11:44:49.303Z,1004.23
2018-11-22T11:45:49.272Z,1004.16
2018-11-22T11:46:49.261Z,1004.22
2018-11-22T11:47:49.231Z,1004.16
2018-11-22T11:48:49.295Z,1004.15
2018-11-22T11:49:49.188Z,1004.14
2018-11-22T11:50:49.178Z,1004.16
2018-11-22T11:51:49.196Z,1004.11
2018-11-22T11:52:49.157Z,1004.14
2018-11-22T11:53:49.148Z,1004.13
2018-11-22T11:54:49.138Z,1004.08
2018-11-22T11:55:49.123Z,1004.10
2018-11-22T11:56:49.115Z,1004.07
2018-11-22T11:57:49.130Z,1004.06
2018-11-22T11:58:49.097Z,1004.08
2018-11-22T11:59:49.086Z,1004.03
2018-11-22T12:00:49.072Z,1004.05
2018-11-22T12:01:49.061Z,1004.05
2018-11-22T12:02:49.046Z,1003.98
2018-11-22T12:03:49.052Z,1004.04
2018-11-22T12:04:49.026Z,1004.04
2018-11-22T12:05:49.022Z,1003.99